sensor_id;sensor_type;location;lat;lon;timestamp;P1;durP1;ratioP1;P2;durP2;ratioP2
81896;SDS011;71360;43.506;1.500;2023-12-07T00:01:53;29.63;;;14.40;;
81896;SDS011;71360;43.506;1.500;2023-12-07T00:04:18;29.33;;;15.20;;
81896;SDS011;71360;43.506;1.500;2023-12-07T00:06:44;36.03;;;15.55;;
81896;SDS011;71360;43.506;1.500;2023-12-07T00:09:09;29.23;;;14.43;;
81896;SDS011;71360;43.506;1.500;2023-12-07T00:11:34;30.30;;;14.43;;
81896;SDS011;71360;43.506;1.500;2023-12-07T00:14:00;27.10;;;14.20;;
81896;SDS011;71360;43.506;1.500;2023-12-07T00:16:25;28.83;;;13.25;;
81896;SDS011;71360;43.506;1.500;2023-12-07T00:18:51;25.67;;;12.40;;
81896;SDS011;71360;43.506;1.500;2023-12-07T00:21:16;24.87;;;12.37;;
81896;SDS011;71360;43.506;1.500;2023-12-07T00:23:42;27.10;;;12.47;;
81896;SDS011;71360;43.506;1.500;2023-12-07T00:26:07;25.38;;;12.02;;
81896;SDS011;71360;43.506;1.500;2023-12-07T00:28:33;18.27;;;10.27;;
81896;SDS011;71360;43.506;1.500;2023-12-07T00:30:58;23.70;;;9.70;;
81896;SDS011;71360;43.506;1.500;2023-12-07T00:33:24;18.93;;;9.03;;
81896;SDS011;71360;43.506;1.500;2023-12-07T00:35:49;23.13;;;9.73;;
81896;SDS011;71360;43.506;1.500;2023-12-07T00:38:15;18.90;;;8.73;;
81896;SDS011;71360;43.506;1.500;2023-12-07T00:40:40;18.07;;;8.63;;
81896;SDS011;71360;43.506;1.500;2023-12-07T00:43:07;18.08;;;7.70;;
81896;SDS011;71360;43.506;1.500;2023-12-07T00:45:33;17.42;;;7.50;;
81896;SDS011;71360;43.506;1.500;2023-12-07T00:47:59;20.60;;;7.18;;
81896;SDS011;71360;43.506;1.500;2023-12-07T00:50:24;15.83;;;6.97;;
81896;SDS011;71360;43.506;1.500;2023-12-07T00:52:50;18.73;;;6.77;;
81896;SDS011;71360;43.506;1.500;2023-12-07T00:55:15;14.07;;;6.83;;
81896;SDS011;71360;43.506;1.500;2023-12-07T00:57:41;16.37;;;6.73;;
81896;SDS011;71360;43.506;1.500;2023-12-07T01:00:06;12.57;;;6.90;;
81896;SDS011;71360;43.506;1.500;2023-12-07T01:02:33;21.70;;;7.65;;
81896;SDS011;71360;43.506;1.500;2023-12-07T01:04:59;16.25;;;7.57;;
81896;SDS011;71360;43.506;1.500;2023-12-07T01:07:24;15.73;;;7.07;;
81896;SDS011;71360;43.506;1.500;2023-12-07T01:09:50;16.40;;;7.53;;
81896;SDS011;71360;43.506;1.500;2023-12-07T01:12:15;14.07;;;7.22;;
81896;SDS011;71360;43.506;1.500;2023-12-07T01:14:41;18.00;;;8.43;;
81896;SDS011;71360;43.506;1.500;2023-12-07T01:17:06;18.43;;;7.70;;
81896;SDS011;71360;43.506;1.500;2023-12-07T01:19:32;17.05;;;7.57;;
81896;SDS011;71360;43.506;1.500;2023-12-07T01:21:57;16.93;;;8.53;;
81896;SDS011;71360;43.506;1.500;2023-12-07T01:24:23;16.43;;;8.90;;
81896;SDS011;71360;43.506;1.500;2023-12-07T01:26:48;19.47;;;9.07;;
81896;SDS011;71360;43.506;1.500;2023-12-07T01:29:13;17.50;;;8.90;;
81896;SDS011;71360;43.506;1.500;2023-12-07T01:31:39;18.10;;;7.30;;
81896;SDS011;71360;43.506;1.500;2023-12-07T01:34:05;16.00;;;7.07;;
81896;SDS011;71360;43.506;1.500;2023-12-07T01:36:31;17.57;;;7.63;;
81896;SDS011;71360;43.506;1.500;2023-12-07T01:38:56;16.10;;;7.60;;
81896;SDS011;71360;43.506;1.500;2023-12-07T01:41:22;18.88;;;7.63;;
81896;SDS011;71360;43.506;1.500;2023-12-07T01:43:48;19.90;;;8.27;;
81896;SDS011;71360;43.506;1.500;2023-12-07T01:46:14;20.65;;;8.00;;
81896;SDS011;71360;43.506;1.500;2023-12-07T01:48:41;17.40;;;8.02;;
81896;SDS011;71360;43.506;1.500;2023-12-07T01:51:08;14.35;;;7.32;;
81896;SDS011;71360;43.506;1.500;2023-12-07T01:53:34;17.77;;;6.90;;
81896;SDS011;71360;43.506;1.500;2023-12-07T01:55:59;11.50;;;5.43;;
81896;SDS011;71360;43.506;1.500;2023-12-07T01:58:25;13.57;;;5.40;;
81896;SDS011;71360;43.506;1.500;2023-12-07T02:00:51;11.27;;;5.15;;
81896;SDS011;71360;43.506;1.500;2023-12-07T02:03:16;14.73;;;5.10;;
81896;SDS011;71360;43.506;1.500;2023-12-07T02:05:43;10.65;;;4.63;;
81896;SDS011;71360;43.506;1.500;2023-12-07T02:08:12;12.02;;;4.22;;
81896;SDS011;71360;43.506;1.500;2023-12-07T02:10:38;14.10;;;3.93;;
81896;SDS011;71360;43.506;1.500;2023-12-07T02:13:03;12.07;;;4.40;;
81896;SDS011;71360;43.506;1.500;2023-12-07T02:15:30;13.03;;;4.13;;
81896;SDS011;71360;43.506;1.500;2023-12-07T02:17:57;9.48;;;3.40;;
81896;SDS011;71360;43.506;1.500;2023-12-07T02:23:25;10.27;;;3.70;;
81896;SDS011;71360;43.506;1.500;2023-12-07T02:25:54;9.25;;;3.10;;
81896;SDS011;71360;43.506;1.500;2023-12-07T02:28:19;6.32;;;2.55;;
81896;SDS011;71360;43.506;1.500;2023-12-07T02:30:45;9.27;;;2.77;;
81896;SDS011;71360;43.506;1.500;2023-12-07T02:33:11;9.77;;;2.70;;
81896;SDS011;71360;43.506;1.500;2023-12-07T02:35:37;11.63;;;2.80;;
81896;SDS011;71360;43.506;1.500;2023-12-07T02:38:03;10.87;;;3.80;;
81896;SDS011;71360;43.506;1.500;2023-12-07T02:40:31;10.23;;;3.50;;
81896;SDS011;71360;43.506;1.500;2023-12-07T02:42:57;11.48;;;4.10;;
81896;SDS011;71360;43.506;1.500;2023-12-07T02:45:24;12.23;;;3.95;;
81896;SDS011;71360;43.506;1.500;2023-12-07T02:47:51;10.35;;;4.53;;
81896;SDS011;71360;43.506;1.500;2023-12-07T02:50:17;17.37;;;8.53;;
81896;SDS011;71360;43.506;1.500;2023-12-07T02:52:43;18.97;;;9.90;;
81896;SDS011;71360;43.506;1.500;2023-12-07T02:55:08;22.45;;;10.38;;
81896;SDS011;71360;43.506;1.500;2023-12-07T02:57:34;21.15;;;10.70;;
81896;SDS011;71360;43.506;1.500;2023-12-07T03:00:00;21.03;;;10.70;;
81896;SDS011;71360;43.506;1.500;2023-12-07T03:02:26;20.80;;;10.52;;
81896;SDS011;71360;43.506;1.500;2023-12-07T03:04:52;23.77;;;10.77;;
81896;SDS011;71360;43.506;1.500;2023-12-07T03:07:17;24.63;;;11.23;;
81896;SDS011;71360;43.506;1.500;2023-12-07T03:09:43;24.03;;;10.90;;
81896;SDS011;71360;43.506;1.500;2023-12-07T03:12:08;23.90;;;10.77;;
81896;SDS011;71360;43.506;1.500;2023-12-07T03:14:34;21.08;;;10.45;;
81896;SDS011;71360;43.506;1.500;2023-12-07T03:16:59;22.27;;;10.50;;
81896;SDS011;71360;43.506;1.500;2023-12-07T03:19:25;21.17;;;10.63;;
81896;SDS011;71360;43.506;1.500;2023-12-07T03:21:50;20.13;;;10.47;;
81896;SDS011;71360;43.506;1.500;2023-12-07T03:24:16;21.27;;;10.47;;
81896;SDS011;71360;43.506;1.500;2023-12-07T03:26:41;20.37;;;10.10;;
81896;SDS011;71360;43.506;1.500;2023-12-07T03:29:07;22.48;;;10.35;;
81896;SDS011;71360;43.506;1.500;2023-12-07T03:31:32;16.73;;;8.93;;
81896;SDS011;71360;43.506;1.500;2023-12-07T03:33:58;18.23;;;8.70;;
81896;SDS011;71360;43.506;1.500;2023-12-07T03:36:26;18.45;;;8.10;;
81896;SDS011;71360;43.506;1.500;2023-12-07T03:38:52;14.95;;;7.90;;
81896;SDS011;71360;43.506;1.500;2023-12-07T03:41:17;16.97;;;7.70;;
81896;SDS011;71360;43.506;1.500;2023-12-07T03:43:43;14.88;;;7.22;;
81896;SDS011;71360;43.506;1.500;2023-12-07T03:46:09;16.23;;;7.53;;
81896;SDS011;71360;43.506;1.500;2023-12-07T03:48:35;13.20;;;6.97;;
81896;SDS011;71360;43.506;1.500;2023-12-07T03:51:00;18.10;;;6.90;;
81896;SDS011;71360;43.506;1.500;2023-12-07T03:53:26;19.77;;;7.03;;
81896;SDS011;71360;43.506;1.500;2023-12-07T03:55:53;14.85;;;6.18;;
81896;SDS011;71360;43.506;1.500;2023-12-07T03:58:20;17.60;;;6.70;;
81896;SDS011;71360;43.506;1.500;2023-12-07T04:00:46;15.77;;;7.07;;
81896;SDS011;71360;43.506;1.500;2023-12-07T04:03:11;15.80;;;6.13;;
81896;SDS011;71360;43.506;1.500;2023-12-07T04:05:37;14.45;;;6.18;;
81896;SDS011;71360;43.506;1.500;2023-12-07T04:08:03;14.63;;;6.60;;
81896;SDS011;71360;43.506;1.500;2023-12-07T04:10:30;13.20;;;6.30;;
81896;SDS011;71360;43.506;1.500;2023-12-07T04:16:17;17.73;;;5.83;;
81896;SDS011;71360;43.506;1.500;2023-12-07T04:18:43;16.48;;;5.97;;
81896;SDS011;71360;43.506;1.500;2023-12-07T04:21:08;11.47;;;5.57;;
81896;SDS011;71360;43.506;1.500;2023-12-07T04:23:34;15.40;;;5.93;;
81896;SDS011;71360;43.506;1.500;2023-12-07T04:25:59;11.55;;;5.43;;
81896;SDS011;71360;43.506;1.500;2023-12-07T04:28:25;11.17;;;5.60;;
81896;SDS011;71360;43.506;1.500;2023-12-07T04:30:50;15.30;;;5.85;;
81896;SDS011;71360;43.506;1.500;2023-12-07T04:33:16;14.10;;;6.00;;
81896;SDS011;71360;43.506;1.500;2023-12-07T04:35:41;12.97;;;6.30;;
81896;SDS011;71360;43.506;1.500;2023-12-07T04:38:07;14.27;;;6.10;;
81896;SDS011;71360;43.506;1.500;2023-12-07T04:40:32;13.30;;;6.15;;
81896;SDS011;71360;43.506;1.500;2023-12-07T04:42:58;13.97;;;6.33;;
81896;SDS011;71360;43.506;1.500;2023-12-07T04:45:24;11.87;;;5.43;;
81896;SDS011;71360;43.506;1.500;2023-12-07T04:47:49;12.27;;;5.50;;
81896;SDS011;71360;43.506;1.500;2023-12-07T04:50:14;16.13;;;5.40;;
81896;SDS011;71360;43.506;1.500;2023-12-07T04:52:40;12.30;;;5.63;;
81896;SDS011;71360;43.506;1.500;2023-12-07T04:55:06;13.10;;;5.45;;
81896;SDS011;71360;43.506;1.500;2023-12-07T04:57:33;13.73;;;5.37;;
81896;SDS011;71360;43.506;1.500;2023-12-07T04:59:59;13.02;;;5.20;;
81896;SDS011;71360;43.506;1.500;2023-12-07T05:02:24;12.85;;;5.93;;
81896;SDS011;71360;43.506;1.500;2023-12-07T05:04:50;12.03;;;5.50;;
81896;SDS011;71360;43.506;1.500;2023-12-07T05:07:15;11.70;;;5.47;;
81896;SDS011;71360;43.506;1.500;2023-12-07T05:09:41;13.32;;;5.38;;
81896;SDS011;71360;43.506;1.500;2023-12-07T05:12:06;13.23;;;5.50;;
81896;SDS011;71360;43.506;1.500;2023-12-07T05:14:32;12.00;;;4.87;;
81896;SDS011;71360;43.506;1.500;2023-12-07T05:16:58;12.10;;;4.78;;
81896;SDS011;71360;43.506;1.500;2023-12-07T05:19:24;14.18;;;5.30;;
81896;SDS011;71360;43.506;1.500;2023-12-07T05:21:53;11.93;;;4.95;;
81896;SDS011;71360;43.506;1.500;2023-12-07T05:24:18;12.60;;;5.23;;
81896;SDS011;71360;43.506;1.500;2023-12-07T05:26:45;12.82;;;5.28;;
81896;SDS011;71360;43.506;1.500;2023-12-07T05:29:11;13.75;;;5.18;;
81896;SDS011;71360;43.506;1.500;2023-12-07T05:31:37;11.80;;;5.80;;
81896;SDS011;71360;43.506;1.500;2023-12-07T05:34:03;14.10;;;5.10;;
81896;SDS011;71360;43.506;1.500;2023-12-07T05:36:28;13.63;;;5.40;;
81896;SDS011;71360;43.506;1.500;2023-12-07T05:38:54;9.30;;;4.85;;
81896;SDS011;71360;43.506;1.500;2023-12-07T05:41:20;12.13;;;5.10;;
81896;SDS011;71360;43.506;1.500;2023-12-07T05:43:45;13.33;;;5.00;;
81896;SDS011;71360;43.506;1.500;2023-12-07T05:46:11;11.10;;;5.00;;
81896;SDS011;71360;43.506;1.500;2023-12-07T05:48:36;11.97;;;4.57;;
81896;SDS011;71360;43.506;1.500;2023-12-07T05:51:02;9.73;;;4.50;;
81896;SDS011;71360;43.506;1.500;2023-12-07T05:53:28;10.63;;;4.45;;
81896;SDS011;71360;43.506;1.500;2023-12-07T05:55:54;12.37;;;4.10;;
81896;SDS011;71360;43.506;1.500;2023-12-07T05:58:19;9.45;;;4.00;;
81896;SDS011;71360;43.506;1.500;2023-12-07T06:00:45;8.03;;;3.83;;
81896;SDS011;71360;43.506;1.500;2023-12-07T06:03:12;10.68;;;3.75;;
81896;SDS011;71360;43.506;1.500;2023-12-07T06:05:38;8.63;;;3.60;;
81896;SDS011;71360;43.506;1.500;2023-12-07T06:08:04;7.30;;;3.50;;
81896;SDS011;71360;43.506;1.500;2023-12-07T06:10:30;9.88;;;3.63;;
81896;SDS011;71360;43.506;1.500;2023-12-07T06:12:56;8.03;;;3.30;;
81896;SDS011;71360;43.506;1.500;2023-12-07T06:15:23;8.27;;;3.10;;
81896;SDS011;71360;43.506;1.500;2023-12-07T06:17:49;7.95;;;3.45;;
81896;SDS011;71360;43.506;1.500;2023-12-07T06:20:14;10.87;;;3.53;;
81896;SDS011;71360;43.506;1.500;2023-12-07T06:22:40;9.73;;;3.33;;
81896;SDS011;71360;43.506;1.500;2023-12-07T06:25:06;8.57;;;3.20;;
81896;SDS011;71360;43.506;1.500;2023-12-07T06:27:33;7.15;;;3.10;;
81896;SDS011;71360;43.506;1.500;2023-12-07T06:30:02;8.02;;;2.97;;
81896;SDS011;71360;43.506;1.500;2023-12-07T06:32:30;8.23;;;2.78;;
81896;SDS011;71360;43.506;1.500;2023-12-07T06:34:56;7.32;;;2.67;;
81896;SDS011;71360;43.506;1.500;2023-12-07T06:37:22;7.57;;;2.37;;
81896;SDS011;71360;43.506;1.500;2023-12-07T06:39:47;6.30;;;2.40;;
81896;SDS011;71360;43.506;1.500;2023-12-07T06:42:14;6.65;;;2.28;;
81896;SDS011;71360;43.506;1.500;2023-12-07T06:44:40;7.38;;;2.55;;
81896;SDS011;71360;43.506;1.500;2023-12-07T06:47:07;9.67;;;2.60;;
81896;SDS011;71360;43.506;1.500;2023-12-07T06:49:32;5.35;;;2.08;;
81896;SDS011;71360;43.506;1.500;2023-12-07T06:51:58;7.67;;;2.40;;
81896;SDS011;71360;43.506;1.500;2023-12-07T06:54:23;6.37;;;2.40;;
81896;SDS011;71360;43.506;1.500;2023-12-07T06:56:49;5.07;;;2.13;;
81896;SDS011;71360;43.506;1.500;2023-12-07T06:59:14;6.87;;;1.90;;
81896;SDS011;71360;43.506;1.500;2023-12-07T07:01:40;9.82;;;2.17;;
81896;SDS011;71360;43.506;1.500;2023-12-07T07:04:05;5.50;;;1.97;;
81896;SDS011;71360;43.506;1.500;2023-12-07T07:06:31;6.43;;;2.30;;
81896;SDS011;71360;43.506;1.500;2023-12-07T07:08:56;6.90;;;2.25;;
81896;SDS011;71360;43.506;1.500;2023-12-07T07:11:22;7.13;;;2.10;;
81896;SDS011;71360;43.506;1.500;2023-12-07T07:13:50;6.03;;;2.15;;
81896;SDS011;71360;43.506;1.500;2023-12-07T07:16:16;6.57;;;2.30;;
81896;SDS011;71360;43.506;1.500;2023-12-07T07:18:43;7.05;;;2.78;;
81896;SDS011;71360;43.506;1.500;2023-12-07T07:21:10;6.28;;;2.70;;
81896;SDS011;71360;43.506;1.500;2023-12-07T07:23:35;5.30;;;2.37;;
81896;SDS011;71360;43.506;1.500;2023-12-07T07:26:01;5.25;;;2.30;;
81896;SDS011;71360;43.506;1.500;2023-12-07T07:28:26;7.97;;;2.50;;
81896;SDS011;71360;43.506;1.500;2023-12-07T07:30:52;5.80;;;2.37;;
81896;SDS011;71360;43.506;1.500;2023-12-07T07:33:18;5.60;;;2.42;;
81896;SDS011;71360;43.506;1.500;2023-12-07T07:35:43;6.23;;;2.73;;
81896;SDS011;71360;43.506;1.500;2023-12-07T07:38:09;7.35;;;2.60;;
81896;SDS011;71360;43.506;1.500;2023-12-07T07:40:35;4.78;;;2.30;;
81896;SDS011;71360;43.506;1.500;2023-12-07T07:43:01;8.20;;;2.50;;
81896;SDS011;71360;43.506;1.500;2023-12-07T07:45:29;5.63;;;2.28;;
81896;SDS011;71360;43.506;1.500;2023-12-07T07:47:57;8.20;;;2.50;;
81896;SDS011;71360;43.506;1.500;2023-12-07T07:50:22;5.90;;;2.35;;
81896;SDS011;71360;43.506;1.500;2023-12-07T07:52:48;6.23;;;2.30;;
81896;SDS011;71360;43.506;1.500;2023-12-07T07:55:13;8.00;;;2.60;;
81896;SDS011;71360;43.506;1.500;2023-12-07T07:57:39;7.45;;;2.88;;
81896;SDS011;71360;43.506;1.500;2023-12-07T08:00:04;5.10;;;2.37;;
81896;SDS011;71360;43.506;1.500;2023-12-07T08:02:33;6.53;;;2.75;;
81896;SDS011;71360;43.506;1.500;2023-12-07T08:04:59;7.07;;;3.00;;
81896;SDS011;71360;43.506;1.500;2023-12-07T08:07:24;6.93;;;2.80;;
81896;SDS011;71360;43.506;1.500;2023-12-07T08:09:50;7.00;;;2.97;;
81896;SDS011;71360;43.506;1.500;2023-12-07T08:12:15;8.97;;;2.80;;
81896;SDS011;71360;43.506;1.500;2023-12-07T08:14:40;7.50;;;2.80;;
81896;SDS011;71360;43.506;1.500;2023-12-07T08:17:08;8.17;;;3.00;;
81896;SDS011;71360;43.506;1.500;2023-12-07T08:19:34;6.85;;;2.90;;
81896;SDS011;71360;43.506;1.500;2023-12-07T08:25:21;8.00;;;2.53;;
81896;SDS011;71360;43.506;1.500;2023-12-07T08:27:47;6.40;;;2.42;;
81896;SDS011;71360;43.506;1.500;2023-12-07T08:30:12;6.17;;;2.70;;
81896;SDS011;71360;43.506;1.500;2023-12-07T08:32:38;6.70;;;2.57;;
81896;SDS011;71360;43.506;1.500;2023-12-07T08:35:04;6.72;;;2.58;;
81896;SDS011;71360;43.506;1.500;2023-12-07T08:37:32;8.43;;;2.65;;
81896;SDS011;71360;43.506;1.500;2023-12-07T08:39:58;7.15;;;2.95;;
81896;SDS011;71360;43.506;1.500;2023-12-07T08:42:23;8.90;;;2.83;;
81896;SDS011;71360;43.506;1.500;2023-12-07T08:44:56;8.57;;;2.78;;
81896;SDS011;71360;43.506;1.500;2023-12-07T08:47:22;6.57;;;2.80;;
81896;SDS011;71360;43.506;1.500;2023-12-07T08:49:47;5.60;;;2.60;;
81896;SDS011;71360;43.506;1.500;2023-12-07T08:52:12;5.37;;;2.63;;
81896;SDS011;71360;43.506;1.500;2023-12-07T08:54:38;7.47;;;2.60;;
81896;SDS011;71360;43.506;1.500;2023-12-07T08:57:04;5.97;;;2.60;;
81896;SDS011;71360;43.506;1.500;2023-12-07T08:59:29;7.37;;;2.27;;
81896;SDS011;71360;43.506;1.500;2023-12-07T09:01:57;6.10;;;2.50;;
81896;SDS011;71360;43.506;1.500;2023-12-07T09:04:24;8.25;;;2.50;;
81896;SDS011;71360;43.506;1.500;2023-12-07T09:06:52;5.87;;;2.30;;
81896;SDS011;71360;43.506;1.500;2023-12-07T09:09:19;7.53;;;2.50;;
81896;SDS011;71360;43.506;1.500;2023-12-07T09:11:48;6.30;;;2.47;;
81896;SDS011;71360;43.506;1.500;2023-12-07T09:14:14;6.43;;;2.40;;
81896;SDS011;71360;43.506;1.500;2023-12-07T09:16:45;6.82;;;2.40;;
81896;SDS011;71360;43.506;1.500;2023-12-07T09:19:11;6.43;;;2.40;;
81896;SDS011;71360;43.506;1.500;2023-12-07T09:21:38;5.78;;;2.50;;
81896;SDS011;71360;43.506;1.500;2023-12-07T09:24:04;8.23;;;2.75;;
81896;SDS011;71360;43.506;1.500;2023-12-07T09:26:31;4.63;;;2.10;;
81896;SDS011;71360;43.506;1.500;2023-12-07T09:28:57;5.72;;;2.30;;
81896;SDS011;71360;43.506;1.500;2023-12-07T09:31:23;5.73;;;2.53;;
81896;SDS011;71360;43.506;1.500;2023-12-07T09:33:48;7.33;;;2.40;;
81896;SDS011;71360;43.506;1.500;2023-12-07T09:36:17;7.90;;;2.50;;
81896;SDS011;71360;43.506;1.500;2023-12-07T09:38:43;7.07;;;2.30;;
81896;SDS011;71360;43.506;1.500;2023-12-07T09:41:09;5.65;;;2.20;;
81896;SDS011;71360;43.506;1.500;2023-12-07T09:43:36;5.97;;;2.50;;
81896;SDS011;71360;43.506;1.500;2023-12-07T09:46:01;5.40;;;2.50;;
81896;SDS011;71360;43.506;1.500;2023-12-07T09:48:27;4.85;;;2.45;;
81896;SDS011;71360;43.506;1.500;2023-12-07T09:50:54;5.75;;;2.30;;
81896;SDS011;71360;43.506;1.500;2023-12-07T09:53:21;5.73;;;2.33;;
81896;SDS011;71360;43.506;1.500;2023-12-07T09:55:47;7.50;;;2.30;;
81896;SDS011;71360;43.506;1.500;2023-12-07T09:58:13;6.10;;;2.30;;
81896;SDS011;71360;43.506;1.500;2023-12-07T10:00:38;5.80;;;2.23;;
81896;SDS011;71360;43.506;1.500;2023-12-07T10:03:05;6.47;;;2.10;;
81896;SDS011;71360;43.506;1.500;2023-12-07T10:05:34;4.90;;;2.42;;
81896;SDS011;71360;43.506;1.500;2023-12-07T10:08:40;4.97;;;2.10;;
81896;SDS011;71360;43.506;1.500;2023-12-07T10:11:09;6.03;;;2.53;;
81896;SDS011;71360;43.506;1.500;2023-12-07T10:13:38;5.57;;;2.20;;
81896;SDS011;71360;43.506;1.500;2023-12-07T10:16:13;5.00;;;2.13;;
81896;SDS011;71360;43.506;1.500;2023-12-07T10:18:43;4.75;;;2.10;;
81896;SDS011;71360;43.506;1.500;2023-12-07T10:21:09;7.40;;;2.40;;
81896;SDS011;71360;43.506;1.500;2023-12-07T10:23:38;5.47;;;2.30;;
81896;SDS011;71360;43.506;1.500;2023-12-07T10:26:07;6.40;;;2.25;;
81896;SDS011;71360;43.506;1.500;2023-12-07T10:28:34;4.80;;;2.23;;
81896;SDS011;71360;43.506;1.500;2023-12-07T10:31:03;5.15;;;2.20;;
81896;SDS011;71360;43.506;1.500;2023-12-07T10:33:29;7.13;;;2.40;;
81896;SDS011;71360;43.506;1.500;2023-12-07T10:35:54;5.00;;;2.50;;
81896;SDS011;71360;43.506;1.500;2023-12-07T10:38:20;6.35;;;2.40;;
81896;SDS011;71360;43.506;1.500;2023-12-07T10:40:46;5.78;;;2.30;;
81896;SDS011;71360;43.506;1.500;2023-12-07T10:43:12;6.43;;;2.33;;
81896;SDS011;71360;43.506;1.500;2023-12-07T10:45:40;5.78;;;2.25;;
81896;SDS011;71360;43.506;1.500;2023-12-07T10:48:09;5.43;;;2.20;;
81896;SDS011;71360;43.506;1.500;2023-12-07T10:50:45;9.27;;;2.60;;
81896;SDS011;71360;43.506;1.500;2023-12-07T10:53:22;7.15;;;2.58;;
81896;SDS011;71360;43.506;1.500;2023-12-07T10:55:53;5.80;;;2.23;;
81896;SDS011;71360;43.506;1.500;2023-12-07T10:58:22;6.93;;;2.60;;
81896;SDS011;71360;43.506;1.500;2023-12-07T11:00:50;7.13;;;2.42;;
81896;SDS011;71360;43.506;1.500;2023-12-07T11:03:17;6.20;;;2.42;;
81896;SDS011;71360;43.506;1.500;2023-12-07T11:05:46;5.97;;;2.53;;
81896;SDS011;71360;43.506;1.500;2023-12-07T11:08:29;5.57;;;2.15;;
81896;SDS011;71360;43.506;1.500;2023-12-07T11:11:04;6.35;;;2.50;;
81896;SDS011;71360;43.506;1.500;2023-12-07T11:13:31;6.17;;;2.20;;
81896;SDS011;71360;43.506;1.500;2023-12-07T11:16:02;8.98;;;2.25;;
81896;SDS011;71360;43.506;1.500;2023-12-07T11:18:29;5.13;;;2.30;;
81896;SDS011;71360;43.506;1.500;2023-12-07T11:20:55;4.97;;;2.30;;
81896;SDS011;71360;43.506;1.500;2023-12-07T11:23:21;6.03;;;2.50;;
81896;SDS011;71360;43.506;1.500;2023-12-07T11:25:48;6.80;;;2.60;;
81896;SDS011;71360;43.506;1.500;2023-12-07T11:28:15;8.63;;;3.35;;
81896;SDS011;71360;43.506;1.500;2023-12-07T11:30:42;8.75;;;2.25;;
81896;SDS011;71360;43.506;1.500;2023-12-07T11:33:09;5.95;;;2.53;;
81896;SDS011;71360;43.506;1.500;2023-12-07T11:38:27;6.22;;;2.78;;
81896;SDS011;71360;43.506;1.500;2023-12-07T11:40:53;5.68;;;2.53;;
81896;SDS011;71360;43.506;1.500;2023-12-07T11:46:07;6.25;;;3.03;;
81896;SDS011;71360;43.506;1.500;2023-12-07T11:48:33;5.63;;;2.50;;
81896;SDS011;71360;43.506;1.500;2023-12-07T11:51:02;6.30;;;2.87;;
81896;SDS011;71360;43.506;1.500;2023-12-07T11:53:30;6.40;;;2.90;;
81896;SDS011;71360;43.506;1.500;2023-12-07T11:56:06;6.00;;;2.80;;
81896;SDS011;71360;43.506;1.500;2023-12-07T11:58:34;8.18;;;3.90;;
81896;SDS011;71360;43.506;1.500;2023-12-07T12:01:00;7.38;;;2.92;;
81896;SDS011;71360;43.506;1.500;2023-12-07T12:03:26;6.87;;;2.20;;
81896;SDS011;71360;43.506;1.500;2023-12-07T12:05:52;6.88;;;2.80;;
81896;SDS011;71360;43.506;1.500;2023-12-07T12:08:19;6.30;;;2.90;;
81896;SDS011;71360;43.506;1.500;2023-12-07T12:10:46;6.60;;;2.80;;
81896;SDS011;71360;43.506;1.500;2023-12-07T12:13:12;10.00;;;3.70;;
81896;SDS011;71360;43.506;1.500;2023-12-07T12:15:40;5.63;;;2.80;;
81896;SDS011;71360;43.506;1.500;2023-12-07T12:18:08;12.45;;;4.50;;
81896;SDS011;71360;43.506;1.500;2023-12-07T12:20:34;5.70;;;2.70;;
81896;SDS011;71360;43.506;1.500;2023-12-07T12:26:01;6.47;;;2.67;;
81896;SDS011;71360;43.506;1.500;2023-12-07T12:28:28;6.22;;;2.58;;
81896;SDS011;71360;43.506;1.500;2023-12-07T12:30:54;5.30;;;2.30;;
81896;SDS011;71360;43.506;1.500;2023-12-07T12:33:20;6.57;;;2.55;;
81896;SDS011;71360;43.506;1.500;2023-12-07T12:35:46;6.47;;;2.47;;
81896;SDS011;71360;43.506;1.500;2023-12-07T12:38:11;5.97;;;2.43;;
81896;SDS011;71360;43.506;1.500;2023-12-07T12:40:37;4.88;;;2.25;;
81896;SDS011;71360;43.506;1.500;2023-12-07T12:43:03;6.68;;;2.05;;
81896;SDS011;71360;43.506;1.500;2023-12-07T12:45:29;4.93;;;2.15;;
81896;SDS011;71360;43.506;1.500;2023-12-07T12:47:56;5.10;;;2.10;;
81896;SDS011;71360;43.506;1.500;2023-12-07T12:50:37;4.90;;;2.10;;
81896;SDS011;71360;43.506;1.500;2023-12-07T12:53:13;7.32;;;2.38;;
81896;SDS011;71360;43.506;1.500;2023-12-07T12:55:40;6.00;;;2.23;;
81896;SDS011;71360;43.506;1.500;2023-12-07T12:58:07;6.18;;;2.35;;
81896;SDS011;71360;43.506;1.500;2023-12-07T13:00:38;6.43;;;2.30;;
81896;SDS011;71360;43.506;1.500;2023-12-07T13:03:05;6.75;;;2.40;;
81896;SDS011;71360;43.506;1.500;2023-12-07T13:05:31;6.78;;;2.20;;
81896;SDS011;71360;43.506;1.500;2023-12-07T13:07:58;5.83;;;2.10;;
81896;SDS011;71360;43.506;1.500;2023-12-07T13:10:27;7.07;;;2.10;;
81896;SDS011;71360;43.506;1.500;2023-12-07T13:16:30;5.80;;;2.30;;
81896;SDS011;71360;43.506;1.500;2023-12-07T13:18:56;6.53;;;2.10;;
81896;SDS011;71360;43.506;1.500;2023-12-07T13:21:21;6.47;;;2.30;;
81896;SDS011;71360;43.506;1.500;2023-12-07T13:23:50;6.57;;;2.60;;
81896;SDS011;71360;43.506;1.500;2023-12-07T13:26:16;7.70;;;2.25;;
81896;SDS011;71360;43.506;1.500;2023-12-07T13:28:41;6.80;;;2.33;;
81896;SDS011;71360;43.506;1.500;2023-12-07T13:31:07;5.63;;;2.30;;
81896;SDS011;71360;43.506;1.500;2023-12-07T13:33:32;6.47;;;2.25;;
81896;SDS011;71360;43.506;1.500;2023-12-07T13:35:57;6.33;;;2.27;;
81896;SDS011;71360;43.506;1.500;2023-12-07T13:38:25;5.13;;;2.10;;
81896;SDS011;71360;43.506;1.500;2023-12-07T13:40:56;5.90;;;2.30;;
81896;SDS011;71360;43.506;1.500;2023-12-07T13:43:25;6.82;;;2.35;;
81896;SDS011;71360;43.506;1.500;2023-12-07T13:45:50;6.03;;;2.38;;
81896;SDS011;71360;43.506;1.500;2023-12-07T13:48:16;6.55;;;2.40;;
81896;SDS011;71360;43.506;1.500;2023-12-07T13:50:42;6.23;;;2.27;;
81896;SDS011;71360;43.506;1.500;2023-12-07T13:53:08;8.45;;;2.35;;
81896;SDS011;71360;43.506;1.500;2023-12-07T13:55:37;6.53;;;2.33;;
81896;SDS011;71360;43.506;1.500;2023-12-07T13:58:04;5.90;;;2.50;;
81896;SDS011;71360;43.506;1.500;2023-12-07T14:00:33;5.60;;;2.47;;
81896;SDS011;71360;43.506;1.500;2023-12-07T14:03:02;5.95;;;2.50;;
81896;SDS011;71360;43.506;1.500;2023-12-07T14:05:31;5.75;;;2.58;;
81896;SDS011;71360;43.506;1.500;2023-12-07T14:07:58;7.60;;;2.33;;
81896;SDS011;71360;43.506;1.500;2023-12-07T14:10:24;7.40;;;2.55;;
81896;SDS011;71360;43.506;1.500;2023-12-07T14:12:49;6.80;;;2.50;;
81896;SDS011;71360;43.506;1.500;2023-12-07T14:15:15;7.50;;;2.63;;
81896;SDS011;71360;43.506;1.500;2023-12-07T14:17:40;6.03;;;2.50;;
81896;SDS011;71360;43.506;1.500;2023-12-07T14:20:06;7.75;;;2.60;;
81896;SDS011;71360;43.506;1.500;2023-12-07T14:22:37;6.57;;;2.50;;
81896;SDS011;71360;43.506;1.500;2023-12-07T14:25:03;6.45;;;2.25;;
81896;SDS011;71360;43.506;1.500;2023-12-07T14:27:29;5.53;;;2.30;;
81896;SDS011;71360;43.506;1.500;2023-12-07T14:29:55;6.75;;;2.72;;
81896;SDS011;71360;43.506;1.500;2023-12-07T14:32:21;6.87;;;2.87;;
81896;SDS011;71360;43.506;1.500;2023-12-07T14:34:46;6.15;;;2.50;;
81896;SDS011;71360;43.506;1.500;2023-12-07T14:37:12;5.40;;;2.50;;
81896;SDS011;71360;43.506;1.500;2023-12-07T14:39:39;6.37;;;2.77;;
81896;SDS011;71360;43.506;1.500;2023-12-07T14:42:06;7.50;;;2.72;;
81896;SDS011;71360;43.506;1.500;2023-12-07T14:44:31;8.07;;;2.50;;
81896;SDS011;71360;43.506;1.500;2023-12-07T14:46:57;9.23;;;2.30;;
81896;SDS011;71360;43.506;1.500;2023-12-07T14:49:23;7.07;;;2.53;;
81896;SDS011;71360;43.506;1.500;2023-12-07T14:51:48;12.27;;;2.43;;
81896;SDS011;71360;43.506;1.500;2023-12-07T14:54:14;10.35;;;2.72;;
81896;SDS011;71360;43.506;1.500;2023-12-07T14:56:40;6.73;;;2.50;;
81896;SDS011;71360;43.506;1.500;2023-12-07T14:59:06;5.85;;;2.80;;